createdAt,value
2019-05-21T00:00:30.544Z,99.60
2019-05-21T00:02:58.245Z,99.90
2019-05-21T00:05:25.920Z,99.90
2019-05-21T00:07:53.551Z,99.90
2019-05-21T00:10:21.316Z,99.90
2019-05-21T00:12:49.045Z,99.90
2019-05-21T00:15:16.898Z,99.90
2019-05-21T00:17:44.547Z,99.90
2019-05-21T00:20:12.277Z,98.70
2019-05-21T00:22:40.306Z,99.00
2019-05-21T00:25:08.516Z,99.10
2019-05-21T00:27:36.168Z,99.50
2019-05-21T00:30:22.355Z,99.70
2019-05-21T00:33:08.422Z,99.90
2019-05-21T00:35:54.199Z,99.90
2019-05-21T00:38:40.528Z,99.90
2019-05-21T00:41:26.506Z,99.80
2019-05-21T00:43:55.966Z,99.90
2019-05-21T00:46:23.632Z,99.60
2019-05-21T00:48:51.564Z,99.90
2019-05-21T00:51:19.339Z,99.90
2019-05-21T00:53:47.056Z,99.90
2019-05-21T00:56:14.703Z,99.90
2019-05-21T00:58:42.562Z,99.90
2019-05-21T01:01:10.277Z,99.40
2019-05-21T01:03:38.000Z,99.00
2019-05-21T01:06:05.760Z,98.70
2019-05-21T01:08:33.404Z,99.00
2019-05-21T01:11:01.060Z,99.20
2019-05-21T01:13:28.915Z,99.60
2019-05-21T01:15:56.574Z,99.70
2019-05-21T01:18:24.578Z,99.90
2019-05-21T01:20:52.653Z,99.90
2019-05-21T01:23:20.299Z,99.90
2019-05-21T01:25:47.958Z,97.50
2019-05-21T01:28:15.635Z,99.20
2019-05-21T01:30:43.632Z,98.60
2019-05-21T01:33:11.317Z,99.00
2019-05-21T01:35:39.295Z,99.30
2019-05-21T01:38:06.979Z,99.70
2019-05-21T01:40:35.030Z,99.90
2019-05-21T01:43:03.503Z,98.90
2019-05-21T01:45:31.448Z,98.80
2019-05-21T01:47:59.147Z,98.60
2019-05-21T01:50:26.865Z,99.50
2019-05-21T01:52:54.511Z,99.80
2019-05-21T01:55:22.297Z,99.80
2019-05-21T01:57:49.945Z,99.90
2019-05-21T02:00:18.287Z,99.60
2019-05-21T02:02:45.984Z,99.90
2019-05-21T02:05:13.707Z,99.10
2019-05-21T02:07:41.354Z,99.40
2019-05-21T02:10:09.103Z,99.90
2019-05-21T02:12:36.756Z,99.90
2019-05-21T02:15:05.907Z,99.10
2019-05-21T02:17:33.792Z,99.50
2019-05-21T02:20:01.447Z,98.70
2019-05-21T02:22:29.471Z,98.50
2019-05-21T02:24:57.230Z,99.50
2019-05-21T02:27:25.197Z,99.60
2019-05-21T02:29:52.848Z,99.90
2019-05-21T02:32:20.538Z,99.80
2019-05-21T02:34:48.530Z,99.10
2019-05-21T02:37:16.175Z,99.80
2019-05-21T02:39:43.855Z,99.80
2019-05-21T02:42:11.575Z,99.50
2019-05-21T02:44:39.409Z,99.90
2019-05-21T02:47:07.059Z,99.90
2019-05-21T02:49:34.704Z,98.30
2019-05-21T02:52:02.386Z,97.90
2019-05-21T02:54:40.708Z,98.20
2019-05-21T02:56:59.876Z,98.70
2019-05-21T02:59:27.595Z,99.00
2019-05-21T03:01:56.958Z,99.40
2019-05-21T03:04:24.645Z,99.10
2019-05-21T03:06:53.931Z,98.90
2019-05-21T03:09:22.368Z,99.10
2019-05-21T03:11:50.392Z,99.40
2019-05-21T03:14:18.081Z,99.30
2019-05-21T03:16:46.024Z,98.80
2019-05-21T03:19:16.506Z,98.90
2019-05-21T03:21:43.173Z,97.90
2019-05-21T03:24:10.829Z,98.30
2019-05-21T03:26:38.524Z,98.50
2019-05-21T03:29:06.173Z,98.90
2019-05-21T03:31:33.929Z,99.20
2019-05-21T03:34:01.579Z,99.30
2019-05-21T03:36:33.302Z,99.00
2019-05-21T03:38:58.700Z,98.50
2019-05-21T03:41:26.369Z,98.70
2019-05-21T03:43:54.362Z,98.10
2019-05-21T03:46:22.167Z,98.30
2019-05-21T03:48:49.819Z,98.60
2019-05-21T03:51:18.233Z,99.30
2019-05-21T03:53:46.011Z,98.50
2019-05-21T03:56:13.722Z,98.80
2019-05-21T03:58:41.367Z,98.90
2019-05-21T04:01:09.156Z,98.40
2019-05-21T04:03:36.809Z,98.60
2019-05-21T04:06:04.782Z,98.50
2019-05-21T04:08:32.609Z,98.70
2019-05-21T04:11:00.272Z,96.90
2019-05-21T04:13:27.905Z,97.50
2019-05-21T04:16:15.031Z,97.20
2019-05-21T04:18:50.190Z,97.10
2019-05-21T04:21:18.220Z,98.00
2019-05-21T04:23:45.872Z,98.40
2019-05-21T04:26:13.569Z,97.60
2019-05-21T04:28:41.311Z,98.20
2019-05-21T04:31:09.114Z,97.70
2019-05-21T04:33:36.806Z,98.00
2019-05-21T04:36:04.845Z,97.50
2019-05-21T04:38:32.490Z,97.80
2019-05-21T04:41:00.155Z,97.70
2019-05-21T04:43:27.999Z,97.80
2019-05-21T04:45:55.800Z,97.40
2019-05-21T04:48:23.778Z,97.60
2019-05-21T04:50:51.483Z,98.20
2019-05-21T04:53:19.145Z,98.00
2019-05-21T04:55:47.200Z,98.20
2019-05-21T04:58:15.268Z,99.10
2019-05-21T05:00:42.987Z,98.50
2019-05-21T05:03:10.637Z,98.70
2019-05-21T05:05:38.523Z,98.70
2019-05-21T05:08:06.546Z,98.90
2019-05-21T05:10:34.212Z,99.30
2019-05-21T05:13:02.006Z,98.90
2019-05-21T05:15:29.652Z,98.80
2019-05-21T05:17:57.351Z,99.10
2019-05-21T05:20:25.516Z,99.00
2019-05-21T05:22:53.473Z,98.60
2019-05-21T05:25:21.195Z,98.90
2019-05-21T05:27:49.072Z,99.10
2019-05-21T05:30:16.993Z,98.80
2019-05-21T05:32:44.642Z,98.80
2019-05-21T05:35:12.408Z,97.50
2019-05-21T05:37:46.387Z,97.80
2019-05-21T05:40:09.799Z,97.60
2019-05-21T05:42:37.627Z,97.80
2019-05-21T05:45:06.059Z,96.70
2019-05-21T05:47:33.797Z,96.20
2019-05-21T05:50:03.284Z,96.20
2019-05-21T05:54:58.330Z,96.10
2019-05-21T05:57:26.025Z,95.40
2019-05-21T05:59:53.678Z,94.10
2019-05-21T06:02:21.323Z,94.50
2019-05-21T06:04:49.086Z,94.70
2019-05-21T06:07:17.010Z,93.40
2019-05-21T06:09:44.791Z,93.70
2019-05-21T06:12:12.456Z,93.80
2019-05-21T06:14:40.164Z,94.10
2019-05-21T06:17:07.881Z,91.70
2019-05-21T06:19:35.796Z,91.50
2019-05-21T06:22:03.544Z,91.70
2019-05-21T06:24:31.321Z,91.60
2019-05-21T06:26:58.962Z,91.50
2019-05-21T06:29:26.683Z,91.70
2019-05-21T06:31:54.386Z,91.20
2019-05-21T06:34:22.372Z,90.70
2019-05-21T06:36:50.030Z,90.90
2019-05-21T06:39:18.008Z,89.60
2019-05-21T06:41:45.695Z,88.50
2019-05-21T06:44:13.635Z,88.60
2019-05-21T06:46:41.297Z,88.20
2019-05-21T06:49:09.152Z,84.10
2019-05-21T06:51:36.813Z,85.10
2019-05-21T06:54:04.812Z,84.50
2019-05-21T06:56:32.479Z,85.00
2019-05-21T06:59:00.268Z,86.30
2019-05-21T07:01:29.494Z,85.60
2019-05-21T07:03:57.327Z,82.60
2019-05-21T07:06:25.365Z,84.60
2019-05-21T07:08:53.018Z,83.20
2019-05-21T07:11:20.750Z,82.20
2019-05-21T07:13:48.505Z,82.70
2019-05-21T07:16:16.203Z,81.10
2019-05-21T07:18:44.280Z,79.80
2019-05-21T07:21:11.995Z,82.80
2019-05-21T07:23:39.643Z,79.50
2019-05-21T07:26:07.414Z,79.70
2019-05-21T07:28:35.113Z,80.90
2019-05-21T07:31:03.167Z,81.40
2019-05-21T07:33:30.884Z,82.30
2019-05-21T07:35:58.582Z,82.60
2019-05-21T07:38:26.252Z,83.20
2019-05-21T07:40:54.094Z,81.60
2019-05-21T07:43:21.821Z,80.10
2019-05-21T07:45:49.547Z,78.50
2019-05-21T07:48:17.327Z,76.10
2019-05-21T07:50:45.054Z,78.90
2019-05-21T07:53:12.960Z,79.40
2019-05-21T07:55:40.732Z,77.90
2019-05-21T07:58:08.387Z,80.00
2019-05-21T08:00:36.031Z,78.40
2019-05-21T08:03:03.888Z,76.70
2019-05-21T08:05:31.537Z,76.30
2019-05-21T08:07:59.258Z,77.30
2019-05-21T08:10:26.964Z,76.60
2019-05-21T08:12:54.662Z,76.00
2019-05-21T08:15:22.315Z,75.70
2019-05-21T08:17:50.091Z,77.00
2019-05-21T08:20:18.490Z,75.50
2019-05-21T08:22:46.148Z,76.20
2019-05-21T08:25:15.061Z,71.90
2019-05-21T08:27:43.027Z,76.00
2019-05-21T08:30:11.220Z,74.40
2019-05-21T08:32:38.972Z,75.00
2019-05-21T08:35:07.062Z,76.90
2019-05-21T08:37:34.985Z,73.40
2019-05-21T08:40:03.126Z,72.40
2019-05-21T08:42:30.984Z,75.10
2019-05-21T08:44:58.638Z,73.50
2019-05-21T08:47:26.554Z,73.70
2019-05-21T08:49:54.663Z,72.70
2019-05-21T08:52:22.379Z,70.30
2019-05-21T08:54:50.790Z,70.50
2019-05-21T08:57:18.728Z,69.60
2019-05-21T08:59:46.560Z,68.10
2019-05-21T09:02:14.283Z,68.30
2019-05-21T09:04:46.248Z,68.50
2019-05-21T09:07:11.674Z,69.30
2019-05-21T09:09:50.109Z,69.60
2019-05-21T09:12:09.124Z,67.20
2019-05-21T09:14:36.821Z,67.40
2019-05-21T09:17:04.811Z,68.60
2019-05-21T09:19:36.216Z,68.90
2019-05-21T09:22:02.118Z,70.20
2019-05-21T09:24:29.762Z,70.80
2019-05-21T09:26:57.484Z,66.00
2019-05-21T09:29:25.256Z,66.40
2019-05-21T09:31:52.972Z,67.00
2019-05-21T09:34:20.629Z,68.10
2019-05-21T09:36:48.325Z,67.40
2019-05-21T09:39:15.987Z,68.90
2019-05-21T09:41:43.647Z,66.70
2019-05-21T09:44:11.413Z,67.30
2019-05-21T09:46:39.145Z,66.30
2019-05-21T09:49:06.828Z,64.60
2019-05-21T09:51:34.483Z,65.40
2019-05-21T09:54:02.324Z,66.10
2019-05-21T09:56:33.065Z,65.30
2019-05-21T09:59:19.330Z,64.60
2019-05-21T10:01:48.910Z,67.00
2019-05-21T10:04:16.695Z,64.00
2019-05-21T10:06:44.675Z,63.90
2019-05-21T10:09:14.073Z,65.30
2019-05-21T10:11:42.000Z,61.90
2019-05-21T10:14:09.653Z,62.10
2019-05-21T10:16:37.371Z,62.60
2019-05-21T10:19:05.250Z,61.20
2019-05-21T10:21:32.961Z,63.30
2019-05-21T10:24:00.687Z,64.30
2019-05-21T10:26:28.452Z,65.00
2019-05-21T10:28:56.207Z,65.40
2019-05-21T10:31:24.190Z,61.90
2019-05-21T10:33:51.835Z,62.30
2019-05-21T10:36:19.594Z,59.10
2019-05-21T10:38:47.351Z,61.50
2019-05-21T10:41:15.366Z,61.70
2019-05-21T10:43:43.344Z,64.40
2019-05-21T10:46:11.113Z,61.60
2019-05-21T10:48:38.799Z,58.90
2019-05-21T10:51:06.522Z,61.50
2019-05-21T10:53:34.219Z,58.40
2019-05-21T10:56:02.336Z,64.00
2019-05-21T10:58:30.056Z,63.60
2019-05-21T11:01:02.058Z,60.40
2019-05-21T11:03:40.030Z,62.60
2019-05-21T11:06:10.517Z,61.40
2019-05-21T11:08:37.270Z,60.50
2019-05-21T11:11:05.215Z,61.90
2019-05-21T11:13:33.311Z,61.20
2019-05-21T11:16:00.953Z,59.50
2019-05-21T11:18:28.805Z,61.90
2019-05-21T11:20:56.787Z,59.60
2019-05-21T11:23:24.709Z,58.80
2019-05-21T11:25:52.784Z,57.80
2019-05-21T11:28:20.523Z,55.60
2019-05-21T11:30:48.450Z,59.20
2019-05-21T11:33:16.371Z,60.50
2019-05-21T11:35:44.351Z,60.20
2019-05-21T11:38:12.070Z,59.20
2019-05-21T11:40:40.186Z,61.10
2019-05-21T11:43:07.917Z,58.50
2019-05-21T11:45:35.648Z,55.40
2019-05-21T11:48:03.517Z,56.50
2019-05-21T11:50:31.166Z,58.40
2019-05-21T11:52:58.884Z,56.50
2019-05-21T11:55:26.609Z,58.30
2019-05-21T11:57:54.350Z,59.00
2019-05-21T12:00:23.617Z,57.20
2019-05-21T12:02:51.443Z,57.90
2019-05-21T12:05:19.192Z,60.50
2019-05-21T12:07:47.019Z,54.60
2019-05-21T12:10:15.106Z,55.80
2019-05-21T12:12:42.836Z,57.70
2019-05-21T12:15:10.896Z,56.70
2019-05-21T12:17:38.832Z,55.30
2019-05-21T12:20:07.231Z,55.40
2019-05-21T12:22:34.996Z,56.20
2019-05-21T12:25:02.725Z,57.20
2019-05-21T12:27:30.390Z,57.90
2019-05-21T12:29:58.073Z,57.80
2019-05-21T12:32:25.986Z,57.70
2019-05-21T12:34:53.755Z,57.80
2019-05-21T12:37:21.488Z,59.40
2019-05-21T12:39:49.206Z,57.70
2019-05-21T12:42:18.038Z,57.10
2019-05-21T12:44:45.795Z,58.30
2019-05-21T12:47:33.049Z,59.00
2019-05-21T12:50:00.852Z,61.70
2019-05-21T12:52:28.843Z,63.20
2019-05-21T12:54:56.703Z,61.60
2019-05-21T12:57:24.379Z,64.20
2019-05-21T12:59:52.076Z,64.40
2019-05-21T13:02:19.971Z,61.70
2019-05-21T13:04:47.676Z,62.40
2019-05-21T13:07:15.599Z,62.70
2019-05-21T13:09:43.661Z,64.10
2019-05-21T13:12:11.440Z,62.50
2019-05-21T13:14:39.351Z,63.10
2019-05-21T13:17:07.336Z,62.10
2019-05-21T13:19:35.020Z,63.70
2019-05-21T13:22:02.750Z,62.20
2019-05-21T13:24:30.676Z,62.90
2019-05-21T13:26:58.409Z,61.80
2019-05-21T13:29:26.164Z,61.20
2019-05-21T13:31:54.718Z,60.60
2019-05-21T13:34:22.479Z,62.30
2019-05-21T13:36:50.383Z,61.50
2019-05-21T13:39:18.099Z,60.80
2019-05-21T13:41:46.136Z,64.50
2019-05-21T13:44:13.794Z,61.40
2019-05-21T13:46:41.529Z,64.50
2019-05-21T13:49:09.309Z,64.50
2019-05-21T13:51:37.090Z,60.80
2019-05-21T13:54:05.171Z,61.30
2019-05-21T13:56:32.817Z,64.70
2019-05-21T13:59:00.503Z,66.10
2019-05-21T14:01:39.975Z,62.30
2019-05-21T14:03:57.816Z,61.30
2019-05-21T14:06:25.552Z,61.80
2019-05-21T14:08:53.205Z,59.80
2019-05-21T14:11:21.144Z,60.30
2019-05-21T14:13:48.799Z,60.00
2019-05-21T14:16:16.456Z,60.70
2019-05-21T14:18:44.571Z,60.80
2019-05-21T14:21:12.215Z,61.50
2019-05-21T14:23:39.933Z,62.00
2019-05-21T14:26:07.845Z,58.80
2019-05-21T14:28:35.606Z,62.30
2019-05-21T14:31:03.305Z,62.30
2019-05-21T14:33:31.166Z,57.80
2019-05-21T14:35:58.925Z,58.00
2019-05-21T14:38:26.647Z,58.30
2019-05-21T14:40:54.396Z,57.60
2019-05-21T14:43:22.034Z,54.10
2019-05-21T14:45:49.747Z,51.90
2019-05-21T14:48:17.471Z,51.20
2019-05-21T14:50:45.190Z,47.90
2019-05-21T14:53:13.109Z,49.80
2019-05-21T14:55:40.825Z,49.70
2019-05-21T14:58:08.542Z,50.00
2019-05-21T15:00:37.362Z,54.70
2019-05-21T15:03:05.230Z,55.20
2019-05-21T15:05:33.650Z,55.60
2019-05-21T15:08:01.528Z,54.50
2019-05-21T15:10:29.187Z,52.20
2019-05-21T15:12:56.821Z,49.20
2019-05-21T15:15:24.678Z,49.80
2019-05-21T15:17:52.333Z,45.40
2019-05-21T15:20:27.527Z,45.90
2019-05-21T15:22:55.375Z,42.90
2019-05-21T15:25:23.030Z,45.20
2019-05-21T15:27:50.686Z,41.10
2019-05-21T15:30:18.450Z,43.50
2019-05-21T15:32:46.115Z,43.40
2019-05-21T15:35:13.769Z,44.20
2019-05-21T15:37:44.860Z,42.50
2019-05-21T15:40:11.364Z,42.70
2019-05-21T15:42:39.020Z,43.00
2019-05-21T15:45:06.884Z,42.50
2019-05-21T15:47:34.852Z,43.30
2019-05-21T15:50:02.513Z,45.50
2019-05-21T15:52:30.421Z,42.10
2019-05-21T15:54:58.204Z,38.60
2019-05-21T15:57:25.927Z,38.40
2019-05-21T15:59:53.583Z,38.70
2019-05-21T16:02:21.632Z,38.20
2019-05-21T16:04:49.288Z,41.20
2019-05-21T16:07:17.011Z,41.20
2019-05-21T16:09:44.754Z,41.80
2019-05-21T16:12:12.400Z,42.60
2019-05-21T16:14:40.133Z,43.50
2019-05-21T16:17:07.980Z,45.10
2019-05-21T16:19:35.658Z,46.80
2019-05-21T16:22:03.384Z,50.70
2019-05-21T16:24:31.622Z,51.30
2019-05-21T16:26:59.280Z,52.60
2019-05-21T16:29:26.933Z,48.70
2019-05-21T16:31:54.706Z,49.10
2019-05-21T16:34:22.425Z,52.70
2019-05-21T16:36:50.089Z,52.70
2019-05-21T16:39:19.575Z,54.50
2019-05-21T16:41:47.285Z,54.90
2019-05-21T16:44:14.938Z,55.40
2019-05-21T16:46:43.011Z,55.40
2019-05-21T16:49:10.915Z,55.20
2019-05-21T16:51:38.565Z,55.40
2019-05-21T16:54:06.421Z,56.20
2019-05-21T16:56:34.073Z,57.50
2019-05-21T16:59:01.791Z,58.40
2019-05-21T17:01:29.744Z,59.00
2019-05-21T17:04:00.017Z,58.80
2019-05-21T17:06:26.821Z,57.60
2019-05-21T17:08:54.582Z,57.50
2019-05-21T17:11:22.236Z,58.00
2019-05-21T17:13:50.015Z,58.00
2019-05-21T17:16:17.746Z,64.60
2019-05-21T17:18:45.503Z,65.30
2019-05-21T17:21:13.339Z,66.50
2019-05-21T17:23:40.985Z,64.00
2019-05-21T17:26:08.659Z,63.30
2019-05-21T17:28:36.454Z,64.80
2019-05-21T17:31:04.282Z,65.40
2019-05-21T17:33:32.246Z,67.80
2019-05-21T17:36:00.114Z,66.50
2019-05-21T17:38:27.775Z,67.50
2019-05-21T17:40:55.499Z,66.50
2019-05-21T17:43:23.292Z,61.00
2019-05-21T17:45:51.265Z,63.00
2019-05-21T17:48:18.933Z,63.90
2019-05-21T17:50:46.777Z,66.50
2019-05-21T17:53:14.434Z,67.70
2019-05-21T17:55:42.356Z,69.30
2019-05-21T17:58:10.067Z,71.20
2019-05-21T18:00:45.666Z,73.30
2019-05-21T18:03:14.843Z,74.20
2019-05-21T18:05:42.504Z,74.60
2019-05-21T18:08:10.327Z,75.70
2019-05-21T18:10:38.154Z,76.10
2019-05-21T18:13:06.007Z,76.70
2019-05-21T18:15:34.066Z,77.30
2019-05-21T18:18:02.610Z,77.90
2019-05-21T18:20:31.293Z,78.30
2019-05-21T18:22:59.719Z,79.10
2019-05-21T18:25:27.375Z,79.80
2019-05-21T18:27:55.089Z,81.30
2019-05-21T18:30:23.292Z,82.20
2019-05-21T18:32:51.615Z,82.70
2019-05-21T18:35:19.474Z,83.40
2019-05-21T18:37:47.407Z,83.20
2019-05-21T18:40:15.487Z,83.10
2019-05-21T18:42:43.235Z,83.70
2019-05-21T18:45:11.380Z,84.30
2019-05-21T18:47:39.113Z,84.20
2019-05-21T18:50:07.784Z,84.80
2019-05-21T18:52:35.521Z,86.50
2019-05-21T18:55:04.298Z,86.50
2019-05-21T18:57:32.337Z,87.10
2019-05-21T18:59:59.989Z,88.20
2019-05-21T19:02:27.735Z,88.50
2019-05-21T19:04:55.881Z,89.10
2019-05-21T19:07:23.700Z,89.90
2019-05-21T19:09:51.344Z,90.30
2019-05-21T19:12:19.152Z,90.40
2019-05-21T19:14:46.965Z,90.70
2019-05-21T19:17:14.729Z,91.10
2019-05-21T19:19:42.481Z,91.40
2019-05-21T19:22:10.508Z,91.40
2019-05-21T19:24:38.253Z,91.30
2019-05-21T19:27:05.938Z,91.30
2019-05-21T19:29:33.593Z,91.60
2019-05-21T19:32:01.274Z,91.00
2019-05-21T19:34:29.006Z,91.00
2019-05-21T19:36:56.857Z,91.10
2019-05-21T19:39:24.525Z,91.10
2019-05-21T19:41:52.319Z,91.10
2019-05-21T19:44:20.416Z,91.40
2019-05-21T19:46:48.143Z,91.40
2019-05-21T19:49:15.864Z,91.20
2019-05-21T19:51:43.583Z,91.50
2019-05-21T19:54:11.261Z,91.90
2019-05-21T19:56:38.966Z,92.10
2019-05-21T19:59:07.047Z,92.40
2019-05-21T20:01:34.945Z,92.10
2019-05-21T20:04:04.255Z,92.00
2019-05-21T20:06:32.453Z,92.00
2019-05-21T20:09:00.673Z,91.80
2019-05-21T20:11:29.013Z,92.10
2019-05-21T20:13:56.892Z,92.00
2019-05-21T20:16:25.521Z,92.30
2019-05-21T20:18:53.183Z,92.50
2019-05-21T20:21:21.152Z,92.70
2019-05-21T20:23:48.871Z,92.70
2019-05-21T20:26:18.336Z,92.70
2019-05-21T20:28:46.280Z,92.90
2019-05-21T20:31:14.135Z,93.00
2019-05-21T20:33:42.506Z,92.90
2019-05-21T20:36:11.103Z,93.00
2019-05-21T20:38:39.999Z,93.10
2019-05-21T20:41:08.400Z,93.30
2019-05-21T20:43:36.551Z,93.70
2019-05-21T20:46:05.242Z,93.60
2019-05-21T20:48:34.533Z,93.80
2019-05-21T20:51:04.442Z,93.60
2019-05-21T20:53:32.931Z,93.30
2019-05-21T20:56:00.757Z,93.30
2019-05-21T20:58:29.032Z,93.30
2019-05-21T21:00:58.537Z,93.70
2019-05-21T21:03:26.262Z,93.40
2019-05-21T21:05:54.480Z,93.70
2019-05-21T21:08:23.096Z,93.60
2019-05-21T21:10:51.185Z,93.10
2019-05-21T21:13:19.323Z,93.20
2019-05-21T21:15:47.763Z,93.00
2019-05-21T21:20:42.823Z,92.90
2019-05-21T21:23:10.689Z,93.30
2019-05-21T21:25:38.572Z,93.70
2019-05-21T21:28:06.769Z,93.80
2019-05-21T21:30:36.283Z,94.00
2019-05-21T21:33:05.412Z,94.00
2019-05-21T21:35:34.095Z,94.20
2019-05-21T21:38:01.819Z,93.60
2019-05-21T21:40:29.740Z,93.70
2019-05-21T21:42:57.452Z,93.90
2019-05-21T21:45:25.163Z,94.60
2019-05-21T21:47:53.365Z,95.10
2019-05-21T21:50:21.506Z,95.20
2019-05-21T21:52:50.002Z,95.60
2019-05-21T21:55:17.797Z,95.80
2019-05-21T21:57:45.768Z,96.20
2019-05-21T22:00:15.213Z,96.50
2019-05-21T22:02:43.528Z,96.50
2019-05-21T22:05:11.924Z,96.70
2019-05-21T22:07:39.700Z,97.00
2019-05-21T22:10:08.312Z,97.30
2019-05-21T22:12:36.697Z,97.30
2019-05-21T22:15:06.183Z,97.60
2019-05-21T22:17:34.199Z,97.60
2019-05-21T22:20:02.246Z,97.80
2019-05-21T22:22:30.722Z,97.70
2019-05-21T22:24:58.406Z,97.80
2019-05-21T22:27:26.231Z,98.00
2019-05-21T22:29:54.232Z,98.10
2019-05-21T22:32:22.648Z,98.30
2019-05-21T22:34:50.369Z,98.00
2019-05-21T22:37:19.775Z,98.20
2019-05-21T22:39:47.972Z,98.10
2019-05-21T22:42:17.271Z,98.00
2019-05-21T22:44:45.847Z,98.20
2019-05-21T22:47:15.139Z,98.50
2019-05-21T22:49:42.785Z,98.40
2019-05-21T22:52:10.728Z,98.30
2019-05-21T22:54:38.375Z,98.40
2019-05-21T22:57:06.086Z,97.80
2019-05-21T22:59:33.822Z,97.90
2019-05-21T23:02:02.749Z,98.00
2019-05-21T23:04:30.701Z,98.00
2019-05-21T23:06:58.554Z,98.00
2019-05-21T23:09:26.579Z,98.00
2019-05-21T23:11:54.289Z,97.50
2019-05-21T23:14:22.117Z,98.00
2019-05-21T23:16:50.407Z,97.90
2019-05-21T23:19:18.794Z,98.10
2019-05-21T23:21:46.667Z,97.90
2019-05-21T23:24:16.731Z,97.80
2019-05-21T23:26:44.971Z,98.10
2019-05-21T23:29:13.230Z,98.20
2019-05-21T23:31:40.952Z,97.70
2019-05-21T23:34:09.000Z,98.00
2019-05-21T23:36:36.759Z,98.00
2019-05-21T23:39:07.051Z,97.10
2019-05-21T23:41:34.709Z,97.40
2019-05-21T23:44:03.223Z,97.20
2019-05-21T23:46:31.155Z,97.10
2019-05-21T23:48:59.469Z,96.70
2019-05-21T23:51:27.119Z,96.90
2019-05-21T23:53:55.038Z,96.90
2019-05-21T23:56:22.764Z,96.90
2019-05-21T23:58:50.955Z,96.80
